createdAt,value
2019-04-07T00:04:48.909Z,33.63
2019-04-07T00:14:54.086Z,30.88
2019-04-07T00:19:56.983Z,33.88
2019-04-07T00:24:59.586Z,31.90
2019-04-07T00:30:02.061Z,35.05
2019-04-07T00:35:05.685Z,37.08
2019-04-07T00:40:08.649Z,30.08
2019-04-07T00:45:11.014Z,28.67
2019-04-07T00:50:13.384Z,35.03
2019-04-07T00:55:15.738Z,29.63
2019-04-07T01:00:18.293Z,28.40
2019-04-07T01:05:20.704Z,28.65
2019-04-07T01:10:22.963Z,29.12
2019-04-07T01:15:25.293Z,33.88
2019-04-07T01:20:27.513Z,41.28
2019-04-07T01:25:30.216Z,38.30
2019-04-07T01:35:45.052Z,36.63
2019-04-07T01:40:39.959Z,34.25
2019-04-07T01:45:47.267Z,33.88
2019-04-07T01:50:51.806Z,32.58
2019-04-07T01:56:05.429Z,46.40
2019-04-07T02:01:15.823Z,43.98
2019-04-07T02:06:28.934Z,45.63
2019-04-07T02:16:39.977Z,44.60
2019-04-07T02:21:53.017Z,41.55
2019-04-07T02:32:08.045Z,36.48
2019-04-07T02:37:15.360Z,32.42
2019-04-07T02:42:32.205Z,31.90
2019-04-07T02:47:48.390Z,32.60
2019-04-07T02:52:54.623Z,40.83
2019-04-07T02:57:59.034Z,33.00
2019-04-07T03:03:03.347Z,29.95
2019-04-07T03:08:24.139Z,27.30
2019-04-07T03:13:46.467Z,29.30
2019-04-07T03:18:50.810Z,32.53
2019-04-07T03:24:04.228Z,27.13
2019-04-07T03:29:08.572Z,26.50
2019-04-07T03:34:15.940Z,29.32
2019-04-07T03:39:26.554Z,27.98
2019-04-07T03:44:36.802Z,26.02
2019-04-07T03:49:43.333Z,34.95
2019-04-07T03:54:47.610Z,23.00
2019-04-07T04:00:08.583Z,26.48
2019-04-07T04:05:18.902Z,30.10
2019-04-07T04:10:23.751Z,32.03
2019-04-07T04:15:27.749Z,29.45
2019-04-07T04:20:30.295Z,26.00
2019-04-07T04:25:32.603Z,24.77
2019-04-07T04:30:34.755Z,23.90
2019-04-07T04:35:37.539Z,36.53
2019-04-07T04:40:40.851Z,35.03
2019-04-07T04:45:44.901Z,29.55
2019-04-07T04:50:47.702Z,34.50
2019-04-07T04:55:50.069Z,35.52
2019-04-07T05:00:52.503Z,33.33
2019-04-07T05:05:55.492Z,29.77
2019-04-07T05:10:58.840Z,41.42
2019-04-07T05:16:01.213Z,57.62
2019-04-07T05:21:04.247Z,48.58
2019-04-07T05:26:06.997Z,45.80
2019-04-07T05:31:09.818Z,29.45
2019-04-07T05:36:12.237Z,47.90
2019-04-07T05:41:14.954Z,49.90
2019-04-07T05:51:20.885Z,75.95
2019-04-07T05:56:26.835Z,51.60
2019-04-07T06:01:28.428Z,59.20
2019-04-07T06:11:36.165Z,47.83
2019-04-07T06:16:38.853Z,48.40
2019-04-07T06:21:41.643Z,44.23
2019-04-07T06:31:48.220Z,38.28
2019-04-07T06:36:53.619Z,37.17
2019-04-07T06:41:55.064Z,40.38
2019-04-07T06:47:03.856Z,34.15
2019-04-07T06:52:13.801Z,30.62
2019-04-07T06:57:29.901Z,31.70
2019-04-07T07:02:49.134Z,34.25
2019-04-07T07:07:59.707Z,41.18
2019-04-07T07:19:38.026Z,35.95
2019-04-07T07:24:40.319Z,32.10
2019-04-07T07:29:45.373Z,26.85
2019-04-07T07:34:47.655Z,22.87
2019-04-07T07:39:50.820Z,20.30
2019-04-07T07:44:53.558Z,20.62
2019-04-07T07:49:56.103Z,15.23
2019-04-07T07:55:00.759Z,14.73
2019-04-07T08:00:06.959Z,13.10
2019-04-07T08:05:09.420Z,15.08
2019-04-07T08:10:11.714Z,12.78
2019-04-07T08:15:14.184Z,20.15
2019-04-07T08:20:16.485Z,14.18
2019-04-07T08:25:22.296Z,14.87
2019-04-07T08:30:23.798Z,13.15
2019-04-07T08:35:28.767Z,13.70
2019-04-07T08:40:32.647Z,16.17
2019-04-07T08:45:35.838Z,17.42
2019-04-07T08:50:38.419Z,15.03
2019-04-07T08:55:41.649Z,12.60
2019-04-07T09:00:48.212Z,13.60
2019-04-07T09:05:50.327Z,13.03
2019-04-07T09:10:54.917Z,12.00
2019-04-07T09:16:17.389Z,19.42
2019-04-07T09:21:39.839Z,14.58
2019-04-07T09:26:49.968Z,13.55
2019-04-07T09:31:54.209Z,18.52
2019-04-07T09:37:17.691Z,15.05
2019-04-07T09:42:26.810Z,14.43
2019-04-07T09:47:33.854Z,16.32
2019-04-07T09:52:39.568Z,12.53
2019-04-07T09:57:47.576Z,16.40
2019-04-07T10:02:58.824Z,11.60
2019-04-07T10:08:20.310Z,12.35
2019-04-07T10:13:27.540Z,15.28
2019-04-07T10:18:46.580Z,11.30
2019-04-07T10:24:06.268Z,12.55
2019-04-07T10:29:11.022Z,14.10
2019-04-07T10:34:16.157Z,12.25
2019-04-07T10:39:27.487Z,14.15
2019-04-07T10:44:32.405Z,16.00
2019-04-07T10:50:01.400Z,15.78
2019-04-07T11:00:55.321Z,12.37
2019-04-07T11:06:05.209Z,13.13
2019-04-07T11:11:12.307Z,13.80
2019-04-07T11:16:31.533Z,13.80
2019-04-07T11:21:36.708Z,17.17
2019-04-07T11:26:59.418Z,13.85
2019-04-07T11:32:10.303Z,13.38
2019-04-07T11:37:20.525Z,12.93
2019-04-07T11:42:33.836Z,25.30
2019-04-07T11:47:43.938Z,17.52
2019-04-07T11:52:51.590Z,16.73
2019-04-07T11:58:09.787Z,16.70
2019-04-07T12:03:20.013Z,15.32
2019-04-07T12:08:31.154Z,17.20
2019-04-07T12:13:31.431Z,17.48
2019-04-07T12:18:38.677Z,20.43
2019-04-07T12:23:55.410Z,22.87
2019-04-07T12:29:16.770Z,12.78
2019-04-07T12:34:33.341Z,13.00
2019-04-07T12:39:37.403Z,19.95
2019-04-07T12:44:47.057Z,16.82
2019-04-07T12:50:10.513Z,16.30
2019-04-07T12:55:28.334Z,25.75
2019-04-07T13:00:52.308Z,19.12
2019-04-07T13:05:59.099Z,22.40
2019-04-07T13:11:26.486Z,15.43
2019-04-07T13:16:30.542Z,16.77
2019-04-07T13:21:40.944Z,27.40
2019-04-07T13:26:54.132Z,19.52
2019-04-07T13:32:01.461Z,23.25
2019-04-07T13:37:18.760Z,20.77
2019-04-07T13:42:23.101Z,21.05
2019-04-07T13:47:29.019Z,28.85
2019-04-07T13:52:45.413Z,36.53
2019-04-07T13:57:55.608Z,29.50
2019-04-07T14:03:04.837Z,25.77
2019-04-07T14:08:22.324Z,24.57
2019-04-07T14:13:42.705Z,22.75
2019-04-07T14:18:53.052Z,26.82
2019-04-07T14:24:13.982Z,24.98
2019-04-07T14:29:18.512Z,21.43
2019-04-07T14:34:29.316Z,32.42
2019-04-07T14:39:36.923Z,48.83
2019-04-07T14:44:47.073Z,31.57
2019-04-07T14:49:52.148Z,23.83
2019-04-07T14:55:01.331Z,26.77
2019-04-07T15:00:14.105Z,23.95
2019-04-07T15:05:21.774Z,33.13
2019-04-07T15:10:27.593Z,24.32
2019-04-07T15:15:30.337Z,28.87
2019-04-07T15:20:32.819Z,32.85
2019-04-07T15:25:35.481Z,26.65
2019-04-07T15:30:38.410Z,34.63
2019-04-07T15:35:47.861Z,20.60
2019-04-07T15:40:47.161Z,20.68
2019-04-07T15:45:50.177Z,22.60
2019-04-07T15:50:52.887Z,26.80
2019-04-07T15:56:02.265Z,24.75
2019-04-07T16:01:00.226Z,26.10
2019-04-07T16:11:05.017Z,24.47
2019-04-07T16:16:07.875Z,23.22
2019-04-07T16:26:19.692Z,24.00
2019-04-07T16:31:25.447Z,22.07
2019-04-07T16:36:28.174Z,26.70
2019-04-07T16:41:30.539Z,26.60
2019-04-07T16:46:33.768Z,26.05
2019-04-07T16:51:36.374Z,23.60
2019-04-07T16:56:39.176Z,30.32
2019-04-07T17:06:44.975Z,24.63
2019-04-07T17:11:47.432Z,22.27
2019-04-07T17:16:50.399Z,26.77
2019-04-07T17:21:53.402Z,22.22
2019-04-07T17:26:56.232Z,26.37
2019-04-07T17:32:01.769Z,76.70
2019-04-07T17:37:04.114Z,33.60
2019-04-07T17:42:10.811Z,35.38
2019-04-07T17:47:14.471Z,35.38
2019-04-07T17:52:35.827Z,58.52
2019-04-07T17:57:42.897Z,42.38
2019-04-07T18:02:53.926Z,41.77
2019-04-07T18:07:59.179Z,36.33
2019-04-07T18:13:21.728Z,61.08
2019-04-07T18:18:26.414Z,41.63
2019-04-07T18:23:32.632Z,56.83
2019-04-07T18:28:43.324Z,139.75
2019-04-07T18:33:50.739Z,49.45
2019-04-07T18:39:11.224Z,31.20
2019-04-07T18:44:22.840Z,38.30
2019-04-07T18:49:29.481Z,38.30
2019-04-07T18:54:42.476Z,41.90
2019-04-07T18:59:50.345Z,33.75
2019-04-07T19:05:09.172Z,47.88
2019-04-07T19:10:19.880Z,36.05
2019-04-07T19:15:37.110Z,37.85
2019-04-07T19:20:51.463Z,52.23
2019-04-07T19:26:04.430Z,33.95
2019-04-07T19:31:26.326Z,37.05
2019-04-07T19:36:30.529Z,30.08
2019-04-07T19:41:40.649Z,34.35
2019-04-07T19:46:44.611Z,30.10
2019-04-07T19:52:04.325Z,33.92
2019-04-07T19:57:09.474Z,32.20
2019-04-07T20:02:16.263Z,28.05
2019-04-07T20:07:20.376Z,30.10
2019-04-07T20:12:25.025Z,34.03
2019-04-07T20:17:32.704Z,34.48
2019-04-07T20:22:39.507Z,39.08
2019-04-07T20:27:47.002Z,29.42
2019-04-07T20:32:51.328Z,38.90
2019-04-07T20:38:07.711Z,21.52
2019-04-07T20:43:24.139Z,27.20
2019-04-07T20:48:35.860Z,27.90
2019-04-07T20:53:40.783Z,28.15
2019-04-07T20:59:05.777Z,30.40
2019-04-07T21:04:08.519Z,29.18
2019-04-07T21:09:32.611Z,30.20
2019-04-07T21:14:41.539Z,31.23
2019-04-07T21:20:02.360Z,29.90
2019-04-07T21:25:08.180Z,31.48
2019-04-07T21:30:17.315Z,31.90
2019-04-07T21:35:38.376Z,28.65
2019-04-07T21:40:48.435Z,32.65
2019-04-07T21:46:11.121Z,28.47
2019-04-07T21:51:24.786Z,26.07
2019-04-07T21:56:47.629Z,26.82
2019-04-07T22:02:11.408Z,32.88
2019-04-07T22:07:16.018Z,29.25
2019-04-07T22:12:18.842Z,27.62
2019-04-07T22:17:21.440Z,29.32
2019-04-07T22:22:25.662Z,27.60
2019-04-07T22:27:28.666Z,24.60
2019-04-07T22:32:31.139Z,29.95
2019-04-07T22:37:34.459Z,24.00
2019-04-07T22:42:37.180Z,23.92
2019-04-07T22:47:39.990Z,28.38
2019-04-07T22:57:44.517Z,29.27
2019-04-07T23:02:46.833Z,29.85
2019-04-07T23:07:50.216Z,28.95
2019-04-07T23:12:52.447Z,30.88
2019-04-07T23:17:55.581Z,32.10
2019-04-07T23:22:58.360Z,33.50
2019-04-07T23:28:00.707Z,36.42
2019-04-07T23:33:03.026Z,30.77
2019-04-07T23:38:05.783Z,31.05
2019-04-07T23:48:10.444Z,28.20
2019-04-07T23:53:49.450Z,34.45
2019-04-07T23:58:52.079Z,31.65
